GLO2034 SBGL-SBEG
Flight info
| Callsign | GLO2034 |
|---|---|
| Flight time | 3h 49m |
| Altitude | 36000 |
| Route | EDNAM UM409 ESMAR DCT IRUMO |
| Aircraft | B738/M-SDFGIKLORWXY/LB1 |
Departure
| Time | 2026-04-15 22:57 |
|---|---|
| Airport | Rio Galeão – Tom Jobim International Airport (SBGL) |
Arrival
| Time | 2026-04-16 02:47 |
|---|---|
| Airport | Eduardo Gomes International Airport (SBEG) |
| Time | Latitude | Longitude | Altitude | Speed | Heading |
|---|---|---|---|---|---|
| 2026-04-15 22:26 | -22.81596 | -43.24691 | 21 ft | 0 kts | 26° |
| 2026-04-15 22:44 | -22.81600 | -43.24693 | 21 ft | 3 kts | 26° |
| 2026-04-15 22:44 | -22.81616 | -43.24702 | 23 ft | 3 kts | 26° |
| 2026-04-15 22:45 | -22.81633 | -43.24711 | 21 ft | 3 kts | 26° |
| 2026-04-15 22:45 | -22.81650 | -43.24721 | 24 ft | 3 kts | 26° |
| 2026-04-15 22:45 | -22.81667 | -43.24730 | 22 ft | 3 kts | 26° |
| 2026-04-15 22:45 | -22.81684 | -43.24739 | 23 ft | 3 kts | 26° |
| 2026-04-15 22:46 | -22.81700 | -43.24747 | 24 ft | 2 kts | 26° |
| 2026-04-15 22:46 | -22.81701 | -43.24748 | 24 ft | 0 kts | 26° |
| 2026-04-15 22:50 | -22.81698 | -43.24747 | 24 ft | 2 kts | 26° |
| 2026-04-15 22:50 | -22.81677 | -43.24747 | 24 ft | 5 kts | 337° |
| 2026-04-15 22:50 | -22.81647 | -43.24784 | 21 ft | 8 kts | 305° |
| 2026-04-15 22:50 | -22.81607 | -43.24845 | 21 ft | 12 kts | 307° |
| 2026-04-15 22:51 | -22.81548 | -43.24919 | 21 ft | 14 kts | 308° |
| 2026-04-15 22:51 | -22.81506 | -43.25009 | 20 ft | 13 kts | 277° |
| 2026-04-15 22:51 | -22.81549 | -43.25089 | 20 ft | 13 kts | 217° |
| 2026-04-15 22:51 | -22.81616 | -43.25150 | 20 ft | 13 kts | 245° |
| 2026-04-15 22:52 | -22.81580 | -43.25231 | 21 ft | 12 kts | 306° |
| 2026-04-15 22:52 | -22.81530 | -43.25305 | 20 ft | 12 kts | 305° |
| 2026-04-15 22:52 | -22.81483 | -43.25378 | 20 ft | 12 kts | 306° |
| 2026-04-15 22:52 | -22.81435 | -43.25449 | 20 ft | 12 kts | 306° |
| 2026-04-15 22:53 | -22.81381 | -43.25532 | 20 ft | 15 kts | 305° |
| 2026-04-15 22:53 | -22.81315 | -43.25632 | 20 ft | 18 kts | 305° |
| 2026-04-15 22:53 | -22.81240 | -43.25746 | 21 ft | 20 kts | 306° |
| 2026-04-15 22:53 | -22.81160 | -43.25866 | 21 ft | 19 kts | 306° |
| 2026-04-15 22:54 | -22.81059 | -43.25909 | 22 ft | 18 kts | 30° |
| 2026-04-15 22:54 | -22.80960 | -43.25833 | 23 ft | 17 kts | 36° |
| 2026-04-15 22:54 | -22.80864 | -43.25759 | 24 ft | 17 kts | 36° |
| 2026-04-15 22:54 | -22.80773 | -43.25689 | 27 ft | 16 kts | 36° |
| 2026-04-15 22:55 | -22.80679 | -43.25617 | 26 ft | 16 kts | 35° |
| 2026-04-15 22:55 | -22.80588 | -43.25547 | 28 ft | 16 kts | 35° |
| 2026-04-15 22:55 | -22.80493 | -43.25559 | 30 ft | 15 kts | 327° |
| 2026-04-15 22:55 | -22.80403 | -43.25612 | 28 ft | 15 kts | 351° |
| 2026-04-15 22:56 | -22.80311 | -43.25569 | 26 ft | 15 kts | 36° |
| 2026-04-15 22:56 | -22.80231 | -43.25502 | 25 ft | 14 kts | 32° |
| 2026-04-15 22:56 | -22.80172 | -43.25436 | 24 ft | 12 kts | 71° |
| 2026-04-15 22:56 | -22.80144 | -43.25341 | 26 ft | 18 kts | 75° |
| 2026-04-15 22:57 | -22.80050 | -43.24976 | 26 ft | 86 kts | 75° |
| 2026-04-15 22:57 | -22.79828 | -43.24126 | 28 ft | 147 kts | 73° |
| 2026-04-15 22:57 | -22.79500 | -43.22914 | 297 ft | 175 kts | 74° |
| 2026-04-15 22:57 | -22.79196 | -43.21671 | 1119 ft | 171 kts | 77° |
| 2026-04-15 22:58 | -22.78919 | -43.20396 | 1918 ft | 174 kts | 78° |
| 2026-04-15 22:58 | -22.78624 | -43.19006 | 2247 ft | 204 kts | 78° |
| 2026-04-15 22:58 | -22.78289 | -43.17428 | 2481 ft | 227 kts | 78° |
| 2026-04-15 22:58 | -22.77923 | -43.15704 | 2852 ft | 243 kts | 78° |
| 2026-04-15 22:59 | -22.77530 | -43.13847 | 3257 ft | 260 kts | 78° |
| 2026-04-15 22:59 | -22.77119 | -43.11907 | 3998 ft | 265 kts | 78° |
| 2026-04-15 22:59 | -22.76705 | -43.09956 | 4863 ft | 268 kts | 77° |
| 2026-04-15 22:59 | -22.76290 | -43.07994 | 5643 ft | 272 kts | 77° |
| 2026-04-15 23:00 | -22.75864 | -43.05982 | 6430 ft | 277 kts | 77° |
| 2026-04-15 23:00 | -22.75430 | -43.03934 | 7186 ft | 280 kts | 77° |
| 2026-04-15 23:00 | -22.74916 | -43.01895 | 7939 ft | 284 kts | 65° |
| 2026-04-15 23:00 | -22.73685 | -43.00218 | 8671 ft | 289 kts | 36° |
| 2026-04-15 23:01 | -22.71846 | -42.99352 | 9418 ft | 294 kts | 9° |
| 2026-04-15 23:01 | -22.69800 | -42.99444 | 10132 ft | 299 kts | 345° |
| 2026-04-15 23:01 | -22.67803 | -43.00224 | 10521 ft | 316 kts | 337° |
| 2026-04-15 23:01 | -22.65722 | -43.01228 | 10692 ft | 339 kts | 335° |
| 2026-04-15 23:02 | -22.63534 | -43.02339 | 11026 ft | 353 kts | 335° |
| 2026-04-15 23:02 | -22.61407 | -43.03703 | 11593 ft | 359 kts | 319° |
| 2026-04-15 23:02 | -22.59705 | -43.05673 | 12318 ft | 359 kts | 309° |
| 2026-04-15 23:02 | -22.58144 | -43.07792 | 12981 ft | 362 kts | 307° |
| 2026-04-15 23:03 | -22.56592 | -43.09962 | 13604 ft | 367 kts | 307° |
| 2026-04-15 23:03 | -22.55027 | -43.12162 | 14180 ft | 371 kts | 307° |
| 2026-04-15 23:03 | -22.53458 | -43.14378 | 14798 ft | 371 kts | 307° |
| 2026-04-15 23:03 | -22.51881 | -43.16611 | 15306 ft | 376 kts | 307° |
| 2026-04-15 23:04 | -22.50304 | -43.18847 | 15789 ft | 381 kts | 307° |
| 2026-04-15 23:04 | -22.48674 | -43.21161 | 16326 ft | 384 kts | 307° |
| 2026-04-15 23:04 | -22.47040 | -43.23461 | 16870 ft | 387 kts | 310° |
| 2026-04-15 23:04 | -22.45090 | -43.25422 | 17367 ft | 391 kts | 323° |
| 2026-04-15 23:05 | -22.42810 | -43.27035 | 17893 ft | 393 kts | 331° |
| 2026-04-15 23:05 | -22.40309 | -43.28248 | 18389 ft | 396 kts | 340° |
| 2026-04-15 23:05 | -22.37692 | -43.29216 | 18838 ft | 398 kts | 342° |
| 2026-04-15 23:05 | -22.35045 | -43.30123 | 19288 ft | 401 kts | 342° |
| 2026-04-15 23:06 | -22.32374 | -43.31022 | 19737 ft | 403 kts | 342° |
| 2026-04-15 23:06 | -22.29693 | -43.31933 | 20194 ft | 405 kts | 342° |
| 2026-04-15 23:06 | -22.27000 | -43.32861 | 20646 ft | 407 kts | 341° |
| 2026-04-15 23:06 | -22.24293 | -43.33806 | 21104 ft | 410 kts | 341° |
| 2026-04-15 23:07 | -22.21568 | -43.34765 | 21535 ft | 413 kts | 341° |
| 2026-04-15 23:07 | -22.18829 | -43.35734 | 21937 ft | 416 kts | 340° |
| 2026-04-15 23:07 | -22.16067 | -43.36713 | 22344 ft | 419 kts | 340° |
| 2026-04-15 23:07 | -22.13285 | -43.37700 | 22756 ft | 422 kts | 340° |
| 2026-04-15 23:08 | -22.10485 | -43.38693 | 23167 ft | 424 kts | 340° |
| 2026-04-15 23:08 | -22.07669 | -43.39691 | 23582 ft | 427 kts | 340° |
| 2026-04-15 23:08 | -22.04835 | -43.40695 | 23896 ft | 430 kts | 340° |
| 2026-04-15 23:08 | -22.01986 | -43.41704 | 24214 ft | 433 kts | 340° |
| 2026-04-15 23:09 | -21.99112 | -43.42721 | 24525 ft | 436 kts | 340° |
| 2026-04-15 23:09 | -21.96221 | -43.43743 | 24845 ft | 439 kts | 340° |
| 2026-04-15 23:09 | -21.93312 | -43.44771 | 25165 ft | 441 kts | 340° |
| 2026-04-15 23:09 | -21.90386 | -43.45805 | 25475 ft | 444 kts | 340° |
| 2026-04-15 23:10 | -21.87442 | -43.46844 | 25783 ft | 447 kts | 340° |
| 2026-04-15 23:10 | -21.84474 | -43.47892 | 26061 ft | 450 kts | 340° |
| 2026-04-15 23:10 | -21.81493 | -43.48944 | 26353 ft | 453 kts | 340° |
| 2026-04-15 23:10 | -21.78483 | -43.50006 | 26661 ft | 456 kts | 340° |
| 2026-04-15 23:11 | -21.75464 | -43.51070 | 26966 ft | 458 kts | 340° |
| 2026-04-15 23:11 | -21.72423 | -43.52141 | 27249 ft | 461 kts | 340° |
| 2026-04-15 23:11 | -21.69373 | -43.53216 | 27518 ft | 463 kts | 340° |
| 2026-04-15 23:11 | -21.66296 | -43.54300 | 27804 ft | 466 kts | 340° |
| 2026-04-15 23:12 | -21.63203 | -43.55389 | 28077 ft | 468 kts | 340° |
| 2026-04-15 23:12 | -21.60142 | -43.56465 | 28349 ft | 471 kts | 340° |
| 2026-04-15 23:12 | -21.57011 | -43.57656 | 28614 ft | 471 kts | 334° |
| 2026-04-15 23:12 | -21.54129 | -43.59236 | 28847 ft | 471 kts | 328° |
| 2026-04-15 23:13 | -21.51294 | -43.61017 | 29117 ft | 473 kts | 327° |
| 2026-04-15 23:13 | -21.48464 | -43.62832 | 29364 ft | 475 kts | 327° |
| 2026-04-15 23:13 | -21.45606 | -43.64657 | 29612 ft | 478 kts | 327° |
| 2026-04-15 23:13 | -21.42736 | -43.66467 | 29856 ft | 480 kts | 327° |
| 2026-04-15 23:14 | -21.39845 | -43.68270 | 30100 ft | 482 kts | 327° |
| 2026-04-15 23:14 | -21.36936 | -43.70072 | 30306 ft | 484 kts | 327° |
| 2026-04-15 23:14 | -21.34013 | -43.71878 | 30517 ft | 485 kts | 327° |
| 2026-04-15 23:14 | -21.31084 | -43.73688 | 30729 ft | 487 kts | 327° |
| 2026-04-15 23:15 | -21.28142 | -43.75506 | 30972 ft | 487 kts | 327° |
| 2026-04-15 23:15 | -21.25214 | -43.77330 | 31236 ft | 487 kts | 326° |
| 2026-04-15 23:15 | -21.22316 | -43.79198 | 31502 ft | 486 kts | 325° |
| 2026-04-15 23:15 | -21.19429 | -43.81095 | 31743 ft | 487 kts | 325° |
| 2026-04-15 23:16 | -21.16544 | -43.83002 | 31983 ft | 488 kts | 325° |
| 2026-04-15 23:16 | -21.13656 | -43.84908 | 32232 ft | 488 kts | 325° |
| 2026-04-15 23:16 | -21.10764 | -43.86808 | 32505 ft | 488 kts | 325° |
| 2026-04-15 23:16 | -21.07861 | -43.88708 | 32756 ft | 488 kts | 325° |
| 2026-04-15 23:17 | -21.04960 | -43.90603 | 32984 ft | 489 kts | 325° |
| 2026-04-15 23:17 | -21.02054 | -43.92497 | 33225 ft | 489 kts | 325° |
| 2026-04-15 23:17 | -20.99146 | -43.94392 | 33476 ft | 489 kts | 325° |
| 2026-04-15 23:17 | -20.96241 | -43.96283 | 33717 ft | 490 kts | 324° |
| 2026-04-15 23:18 | -20.93325 | -43.98181 | 33954 ft | 490 kts | 324° |
| 2026-04-15 23:18 | -20.90449 | -44.00054 | 34154 ft | 491 kts | 324° |
| 2026-04-15 23:18 | -20.87535 | -44.01950 | 34386 ft | 490 kts | 324° |
| 2026-04-15 23:18 | -20.84627 | -44.03841 | 34651 ft | 488 kts | 324° |
| 2026-04-15 23:19 | -20.81734 | -44.05722 | 34903 ft | 487 kts | 324° |
| 2026-04-15 23:19 | -20.78842 | -44.07602 | 35138 ft | 486 kts | 324° |
| 2026-04-15 23:19 | -20.75956 | -44.09474 | 35386 ft | 484 kts | 324° |
| 2026-04-15 23:19 | -20.73071 | -44.11331 | 35612 ft | 483 kts | 324° |
| 2026-04-15 23:20 | -20.70194 | -44.13188 | 35790 ft | 483 kts | 324° |
| 2026-04-15 23:20 | -20.67326 | -44.15059 | 35973 ft | 483 kts | 324° |
| 2026-04-15 23:20 | -20.64464 | -44.16928 | 36083 ft | 481 kts | 324° |
| 2026-04-15 23:20 | -20.61662 | -44.18747 | 36073 ft | 482 kts | 324° |
| 2026-04-15 23:21 | -20.55846 | -44.22467 | 36082 ft | 483 kts | 325° |
| 2026-04-15 23:21 | -20.50076 | -44.26149 | 36081 ft | 483 kts | 325° |
| 2026-04-15 23:22 | -20.44309 | -44.29837 | 36074 ft | 484 kts | 325° |
| 2026-04-15 23:22 | -20.38547 | -44.33547 | 36071 ft | 484 kts | 325° |
| 2026-04-15 23:23 | -20.32797 | -44.37271 | 36063 ft | 483 kts | 325° |
| 2026-04-15 23:23 | -20.27050 | -44.40987 | 36067 ft | 483 kts | 325° |
| 2026-04-15 23:24 | -20.21316 | -44.44688 | 36052 ft | 482 kts | 325° |
| 2026-04-15 23:24 | -20.15575 | -44.48390 | 36053 ft | 481 kts | 325° |
| 2026-04-15 23:25 | -20.09852 | -44.52066 | 36055 ft | 480 kts | 326° |
| 2026-04-15 23:25 | -20.04123 | -44.55723 | 36046 ft | 480 kts | 326° |
| 2026-04-15 23:26 | -19.98407 | -44.59369 | 36056 ft | 478 kts | 326° |
| 2026-04-15 23:26 | -19.92738 | -44.62985 | 36048 ft | 478 kts | 326° |
| 2026-04-15 23:27 | -19.87036 | -44.66621 | 36044 ft | 478 kts | 326° |
| 2026-04-15 23:27 | -19.81334 | -44.70254 | 36039 ft | 478 kts | 326° |
| 2026-04-15 23:28 | -19.75636 | -44.73881 | 36039 ft | 477 kts | 326° |
| 2026-04-15 23:28 | -19.69945 | -44.77501 | 36028 ft | 477 kts | 326° |
| 2026-04-15 23:29 | -19.64246 | -44.81123 | 36031 ft | 476 kts | 326° |
| 2026-04-15 23:29 | -19.58564 | -44.84731 | 36029 ft | 476 kts | 326° |
| 2026-04-15 23:30 | -19.52890 | -44.88331 | 36027 ft | 475 kts | 326° |
| 2026-04-15 23:30 | -19.47215 | -44.91931 | 36024 ft | 475 kts | 326° |
| 2026-04-15 23:31 | -19.41547 | -44.95527 | 36024 ft | 475 kts | 326° |
| 2026-04-15 23:31 | -19.35915 | -44.99098 | 36037 ft | 475 kts | 326° |
| 2026-04-15 23:32 | -19.30277 | -45.02670 | 36005 ft | 467 kts | 328° |
| 2026-04-15 23:32 | -19.24748 | -45.06169 | 36009 ft | 461 kts | 328° |
| 2026-04-15 23:33 | -19.19232 | -45.09657 | 36013 ft | 462 kts | 328° |
| 2026-04-15 23:33 | -19.13709 | -45.13148 | 36017 ft | 463 kts | 328° |
| 2026-04-15 23:34 | -19.08180 | -45.16640 | 36012 ft | 463 kts | 328° |
| 2026-04-15 23:36 | -18.89696 | -45.28292 | 36004 ft | 465 kts | 328° |
| 2026-04-15 23:36 | -18.84131 | -45.31794 | 36008 ft | 465 kts | 328° |
| 2026-04-15 23:37 | -18.78573 | -45.35289 | 36003 ft | 465 kts | 328° |
| 2026-04-15 23:37 | -18.73021 | -45.38778 | 36006 ft | 465 kts | 328° |
| 2026-04-15 23:38 | -18.68330 | -45.41724 | 36002 ft | 465 kts | 328° |
| 2026-04-15 23:38 | -18.62773 | -45.45211 | 36005 ft | 465 kts | 328° |
| 2026-04-15 23:39 | -18.57220 | -45.48693 | 36001 ft | 464 kts | 328° |
| 2026-04-15 23:39 | -18.51674 | -45.52168 | 36007 ft | 463 kts | 328° |
| 2026-04-15 23:40 | -18.46130 | -45.55640 | 36011 ft | 463 kts | 328° |
| 2026-04-15 23:40 | -18.40737 | -45.59343 | 36018 ft | 462 kts | 322° |
| 2026-04-15 23:41 | -18.35596 | -45.63401 | 36007 ft | 462 kts | 321° |
| 2026-04-15 23:41 | -18.30471 | -45.67478 | 36014 ft | 462 kts | 322° |
| 2026-04-15 23:42 | -18.25318 | -45.71523 | 36014 ft | 462 kts | 322° |
| 2026-04-15 23:42 | -18.20186 | -45.75524 | 36015 ft | 462 kts | 322° |
| 2026-04-15 23:43 | -18.15017 | -45.79546 | 36011 ft | 462 kts | 322° |
| 2026-04-15 23:43 | -18.09846 | -45.83569 | 36013 ft | 463 kts | 322° |
| 2026-04-15 23:44 | -18.04669 | -45.87594 | 36011 ft | 463 kts | 322° |
| 2026-04-15 23:44 | -17.99484 | -45.91623 | 36010 ft | 463 kts | 322° |
| 2026-04-15 23:45 | -17.94303 | -45.95646 | 36010 ft | 463 kts | 322° |
| 2026-04-15 23:45 | -17.89122 | -45.99667 | 36007 ft | 464 kts | 322° |
| 2026-04-15 23:46 | -17.83922 | -46.03699 | 36000 ft | 464 kts | 322° |
| 2026-04-15 23:46 | -17.78727 | -46.07726 | 36001 ft | 464 kts | 322° |
| 2026-04-15 23:47 | -17.73543 | -46.11745 | 35995 ft | 464 kts | 322° |
| 2026-04-15 23:47 | -17.68334 | -46.15781 | 35989 ft | 464 kts | 321° |
| 2026-04-15 23:48 | -17.63138 | -46.19803 | 35990 ft | 464 kts | 321° |
| 2026-04-15 23:48 | -17.57954 | -46.23814 | 35985 ft | 464 kts | 321° |
| 2026-04-15 23:49 | -17.52760 | -46.27829 | 35978 ft | 463 kts | 321° |
| 2026-04-15 23:49 | -17.47574 | -46.31836 | 35977 ft | 463 kts | 321° |
| 2026-04-15 23:50 | -17.42395 | -46.35833 | 35974 ft | 462 kts | 321° |
| 2026-04-15 23:50 | -17.37213 | -46.39831 | 35978 ft | 462 kts | 321° |
| 2026-04-15 23:51 | -17.29454 | -46.45811 | 35978 ft | 461 kts | 321° |
| 2026-04-15 23:51 | -17.24322 | -46.49764 | 35975 ft | 461 kts | 321° |
| 2026-04-15 23:52 | -17.19155 | -46.53742 | 35972 ft | 461 kts | 321° |
| 2026-04-15 23:52 | -17.13988 | -46.57715 | 35974 ft | 461 kts | 321° |
| 2026-04-15 23:53 | -17.09004 | -46.61902 | 35977 ft | 459 kts | 316° |
| 2026-04-15 23:53 | -17.04176 | -46.66265 | 35976 ft | 459 kts | 316° |
| 2026-04-15 23:54 | -16.99349 | -46.70625 | 35975 ft | 459 kts | 316° |
| 2026-04-15 23:54 | -16.94497 | -46.74961 | 35984 ft | 459 kts | 316° |
| 2026-04-15 23:55 | -16.89639 | -46.79280 | 35981 ft | 459 kts | 316° |
| 2026-04-15 23:55 | -16.84771 | -46.83602 | 35986 ft | 459 kts | 316° |
| 2026-04-15 23:56 | -16.79913 | -46.87914 | 35992 ft | 459 kts | 316° |
| 2026-04-15 23:56 | -16.75049 | -46.92229 | 35986 ft | 459 kts | 316° |
| 2026-04-15 23:57 | -16.70182 | -46.96544 | 35989 ft | 459 kts | 316° |
| 2026-04-15 23:57 | -16.65341 | -47.00833 | 35983 ft | 460 kts | 316° |
| 2026-04-15 23:58 | -16.60438 | -47.05174 | 35996 ft | 460 kts | 316° |
| 2026-04-15 23:58 | -16.55596 | -47.09458 | 35991 ft | 460 kts | 316° |
| 2026-04-15 23:59 | -16.50718 | -47.13771 | 36002 ft | 460 kts | 316° |
| 2026-04-15 23:59 | -16.45835 | -47.18086 | 35997 ft | 460 kts | 316° |
| 2026-04-16 00:00 | -16.40952 | -47.22398 | 36000 ft | 460 kts | 316° |
| 2026-04-16 00:00 | -16.36213 | -47.26846 | 36008 ft | 457 kts | 311° |
| 2026-04-16 00:01 | -16.31754 | -47.31558 | 36011 ft | 457 kts | 310° |
| 2026-04-16 00:01 | -16.27309 | -47.36303 | 35997 ft | 457 kts | 310° |
| 2026-04-16 00:02 | -16.22844 | -47.41010 | 36005 ft | 457 kts | 310° |
| 2026-04-16 00:02 | -16.18359 | -47.45703 | 36002 ft | 457 kts | 310° |
| 2026-04-16 00:03 | -16.13873 | -47.50388 | 36002 ft | 457 kts | 310° |
| 2026-04-16 00:03 | -16.09393 | -47.55066 | 36007 ft | 456 kts | 310° |
| 2026-04-16 00:04 | -16.04910 | -47.59746 | 36012 ft | 456 kts | 310° |
| 2026-04-16 00:04 | -16.00456 | -47.64392 | 36009 ft | 456 kts | 310° |
| 2026-04-16 00:05 | -15.95976 | -47.69063 | 36050 ft | 456 kts | 310° |
| 2026-04-16 00:05 | -15.91497 | -47.73729 | 36064 ft | 456 kts | 310° |
| 2026-04-16 00:06 | -15.87020 | -47.78392 | 36096 ft | 456 kts | 310° |
| 2026-04-16 00:06 | -15.82543 | -47.83053 | 36108 ft | 455 kts | 310° |
| 2026-04-16 00:07 | -15.78075 | -47.87715 | 36096 ft | 455 kts | 310° |
| 2026-04-16 00:07 | -15.73606 | -47.92378 | 36089 ft | 455 kts | 310° |
| 2026-04-16 00:08 | -15.69140 | -47.97034 | 36073 ft | 455 kts | 310° |
| 2026-04-16 00:08 | -15.64671 | -48.01690 | 36056 ft | 455 kts | 310° |
| 2026-04-16 00:09 | -15.60202 | -48.06343 | 36026 ft | 456 kts | 310° |
| 2026-04-16 00:09 | -15.55724 | -48.11002 | 36009 ft | 456 kts | 310° |
| 2026-04-16 00:10 | -15.51275 | -48.15630 | 36000 ft | 456 kts | 310° |
| 2026-04-16 00:10 | -15.46760 | -48.20255 | 35994 ft | 457 kts | 312° |
| 2026-04-16 00:11 | -15.42066 | -48.24715 | 35986 ft | 458 kts | 313° |
| 2026-04-16 00:11 | -15.37344 | -48.29152 | 35988 ft | 457 kts | 313° |
| 2026-04-16 00:12 | -15.32653 | -48.33600 | 35983 ft | 457 kts | 313° |
| 2026-04-16 00:12 | -15.27976 | -48.38058 | 35975 ft | 457 kts | 313° |
| 2026-04-16 00:13 | -15.23303 | -48.42512 | 35975 ft | 456 kts | 313° |
| 2026-04-16 00:13 | -15.18639 | -48.46955 | 35969 ft | 456 kts | 313° |
| 2026-04-16 00:14 | -15.13972 | -48.51397 | 35971 ft | 455 kts | 313° |
| 2026-04-16 00:14 | -15.09315 | -48.55825 | 35964 ft | 454 kts | 313° |
| 2026-04-16 00:15 | -15.04655 | -48.60256 | 35970 ft | 454 kts | 313° |
| 2026-04-16 00:15 | -15.00032 | -48.64634 | 35964 ft | 454 kts | 313° |
| 2026-04-16 00:16 | -14.95356 | -48.69015 | 35961 ft | 454 kts | 313° |
| 2026-04-16 00:16 | -14.90638 | -48.73427 | 35958 ft | 454 kts | 313° |
| 2026-04-16 00:17 | -14.85985 | -48.77782 | 35953 ft | 455 kts | 313° |
| 2026-04-16 00:17 | -14.81294 | -48.82174 | 35956 ft | 454 kts | 313° |
| 2026-04-16 00:18 | -14.76609 | -48.86558 | 35949 ft | 454 kts | 313° |
| 2026-04-16 00:18 | -14.71923 | -48.90940 | 35952 ft | 455 kts | 313° |
| 2026-04-16 00:19 | -14.67222 | -48.95334 | 35946 ft | 456 kts | 313° |
| 2026-04-16 00:19 | -14.62517 | -48.99729 | 35938 ft | 456 kts | 314° |
| 2026-04-16 00:20 | -14.57810 | -49.04123 | 35936 ft | 456 kts | 314° |
| 2026-04-16 00:20 | -14.53097 | -49.08519 | 35938 ft | 457 kts | 314° |
| 2026-04-16 00:21 | -14.48381 | -49.12916 | 35936 ft | 457 kts | 314° |
| 2026-04-16 00:21 | -14.44460 | -49.16569 | 35931 ft | 457 kts | 314° |
| 2026-04-16 00:22 | -14.39746 | -49.20960 | 35938 ft | 456 kts | 314° |
| 2026-04-16 00:22 | -14.35031 | -49.25348 | 35929 ft | 456 kts | 314° |
| 2026-04-16 00:23 | -14.30316 | -49.29735 | 35929 ft | 456 kts | 314° |
| 2026-04-16 00:23 | -14.25609 | -49.34111 | 35920 ft | 455 kts | 314° |
| 2026-04-16 00:24 | -14.20901 | -49.38485 | 35922 ft | 455 kts | 314° |
| 2026-04-16 00:24 | -14.16200 | -49.42851 | 35924 ft | 454 kts | 314° |
| 2026-04-16 00:25 | -14.11498 | -49.47215 | 35918 ft | 454 kts | 314° |
| 2026-04-16 00:25 | -14.06811 | -49.51564 | 35918 ft | 454 kts | 314° |
| 2026-04-16 00:26 | -14.02112 | -49.55915 | 35915 ft | 454 kts | 315° |
| 2026-04-16 00:26 | -13.97350 | -49.60189 | 35912 ft | 454 kts | 316° |
| 2026-04-16 00:27 | -13.92593 | -49.64407 | 35916 ft | 454 kts | 316° |
| 2026-04-16 00:27 | -13.87808 | -49.68661 | 35911 ft | 455 kts | 316° |
| 2026-04-16 00:28 | -13.83022 | -49.72926 | 35918 ft | 455 kts | 316° |
| 2026-04-16 00:28 | -13.78238 | -49.77192 | 35907 ft | 455 kts | 316° |
| 2026-04-16 00:29 | -13.73448 | -49.81460 | 35913 ft | 455 kts | 316° |
| 2026-04-16 00:29 | -13.68661 | -49.85723 | 35906 ft | 455 kts | 316° |
| 2026-04-16 00:30 | -13.63869 | -49.89988 | 35913 ft | 455 kts | 316° |
| 2026-04-16 00:30 | -13.59080 | -49.94247 | 35912 ft | 455 kts | 316° |
| 2026-04-16 00:31 | -13.54293 | -49.98503 | 35909 ft | 455 kts | 316° |
| 2026-04-16 00:31 | -13.49507 | -50.02755 | 35908 ft | 455 kts | 316° |
| 2026-04-16 00:32 | -13.44716 | -50.07010 | 35905 ft | 455 kts | 316° |
| 2026-04-16 00:32 | -13.39921 | -50.11265 | 35902 ft | 455 kts | 316° |
| 2026-04-16 00:33 | -13.35172 | -50.15479 | 35908 ft | 454 kts | 316° |
| 2026-04-16 00:33 | -13.30387 | -50.19721 | 35908 ft | 454 kts | 316° |
| 2026-04-16 00:34 | -13.25601 | -50.23963 | 35903 ft | 454 kts | 316° |
| 2026-04-16 00:34 | -13.20822 | -50.28196 | 35907 ft | 454 kts | 316° |
| 2026-04-16 00:35 | -13.16038 | -50.32430 | 35908 ft | 454 kts | 317° |
| 2026-04-16 00:35 | -13.11256 | -50.36662 | 35905 ft | 454 kts | 317° |
| 2026-04-16 00:36 | -13.06476 | -50.40890 | 35899 ft | 454 kts | 317° |
| 2026-04-16 00:36 | -13.01688 | -50.45124 | 35908 ft | 454 kts | 317° |
| 2026-04-16 00:37 | -12.96904 | -50.49354 | 35903 ft | 454 kts | 317° |
| 2026-04-16 00:37 | -12.92112 | -50.53587 | 35906 ft | 455 kts | 317° |
| 2026-04-16 00:38 | -12.87313 | -50.57824 | 35898 ft | 455 kts | 317° |
| 2026-04-16 00:38 | -12.82517 | -50.62057 | 35904 ft | 455 kts | 317° |
| 2026-04-16 00:39 | -12.77721 | -50.66288 | 35900 ft | 455 kts | 317° |
| 2026-04-16 00:39 | -12.72921 | -50.70519 | 35905 ft | 455 kts | 317° |
| 2026-04-16 00:40 | -12.68115 | -50.74755 | 35904 ft | 456 kts | 317° |
| 2026-04-16 00:40 | -12.63336 | -50.78963 | 35902 ft | 456 kts | 317° |
| 2026-04-16 00:41 | -12.58528 | -50.83196 | 35902 ft | 456 kts | 317° |
| 2026-04-16 00:41 | -12.53714 | -50.87431 | 35902 ft | 456 kts | 317° |
| 2026-04-16 00:42 | -12.48903 | -50.91661 | 35908 ft | 456 kts | 317° |
| 2026-04-16 00:42 | -12.44091 | -50.95891 | 35906 ft | 456 kts | 317° |
| 2026-04-16 00:43 | -12.39271 | -51.00126 | 35905 ft | 456 kts | 317° |
| 2026-04-16 00:43 | -12.34450 | -51.04359 | 35910 ft | 457 kts | 317° |
| 2026-04-16 00:44 | -12.29626 | -51.08593 | 35912 ft | 457 kts | 317° |
| 2026-04-16 00:44 | -12.24800 | -51.12828 | 35909 ft | 457 kts | 317° |
| 2026-04-16 00:45 | -12.20002 | -51.17035 | 35907 ft | 457 kts | 317° |
| 2026-04-16 00:45 | -12.15174 | -51.21266 | 35910 ft | 457 kts | 317° |
| 2026-04-16 00:46 | -12.10337 | -51.25503 | 35902 ft | 458 kts | 317° |
| 2026-04-16 00:46 | -12.05516 | -51.29727 | 35911 ft | 457 kts | 317° |
| 2026-04-16 00:47 | -12.00682 | -51.33961 | 35915 ft | 457 kts | 317° |
| 2026-04-16 00:47 | -11.95852 | -51.38189 | 35913 ft | 457 kts | 318° |
| 2026-04-16 00:48 | -11.91025 | -51.42413 | 35912 ft | 457 kts | 318° |
| 2026-04-16 00:48 | -11.86187 | -51.46642 | 35918 ft | 457 kts | 318° |
| 2026-04-16 00:50 | -11.66845 | -51.63537 | 35924 ft | 458 kts | 318° |
| 2026-04-16 00:51 | -11.62000 | -51.67763 | 35920 ft | 459 kts | 318° |
| 2026-04-16 00:51 | -11.57148 | -51.71994 | 35918 ft | 459 kts | 318° |
| 2026-04-16 00:52 | -11.52325 | -51.76198 | 35920 ft | 459 kts | 318° |
| 2026-04-16 00:52 | -11.47469 | -51.80428 | 35918 ft | 460 kts | 318° |
| 2026-04-16 00:53 | -11.42605 | -51.84664 | 35914 ft | 460 kts | 318° |
| 2026-04-16 00:53 | -11.37739 | -51.88900 | 35923 ft | 460 kts | 318° |
| 2026-04-16 00:54 | -11.32874 | -51.93134 | 35919 ft | 460 kts | 318° |
| 2026-04-16 00:54 | -11.27998 | -51.97373 | 35920 ft | 460 kts | 318° |
| 2026-04-16 00:55 | -11.23089 | -52.01565 | 35923 ft | 461 kts | 319° |
| 2026-04-16 00:55 | -11.18154 | -52.05733 | 35925 ft | 461 kts | 319° |
| 2026-04-16 00:56 | -11.13222 | -52.09901 | 35917 ft | 461 kts | 319° |
| 2026-04-16 00:56 | -11.08295 | -52.14072 | 35920 ft | 460 kts | 319° |
| 2026-04-16 00:57 | -11.00911 | -52.20327 | 35926 ft | 460 kts | 319° |
| 2026-04-16 00:58 | -10.95989 | -52.24494 | 35915 ft | 460 kts | 319° |
| 2026-04-16 00:58 | -10.91068 | -52.28658 | 35921 ft | 460 kts | 319° |
| 2026-04-16 00:59 | -10.86150 | -52.32817 | 35925 ft | 459 kts | 319° |
| 2026-04-16 00:59 | -10.81239 | -52.36970 | 35925 ft | 459 kts | 319° |
| 2026-04-16 01:00 | -10.76334 | -52.41114 | 35928 ft | 459 kts | 319° |
| 2026-04-16 01:00 | -10.71748 | -52.45605 | 35935 ft | 457 kts | 310° |
| 2026-04-16 01:01 | -10.67629 | -52.50480 | 35923 ft | 457 kts | 309° |
| 2026-04-16 01:01 | -10.63512 | -52.55400 | 35922 ft | 457 kts | 309° |
| 2026-04-16 01:02 | -10.59358 | -52.60290 | 35924 ft | 457 kts | 310° |
| 2026-04-16 01:02 | -10.55172 | -52.65171 | 35922 ft | 457 kts | 310° |
| 2026-04-16 01:03 | -10.50983 | -52.70040 | 35923 ft | 457 kts | 310° |
| 2026-04-16 01:03 | -10.46791 | -52.74912 | 35925 ft | 457 kts | 310° |
| 2026-04-16 01:04 | -10.42603 | -52.79776 | 35924 ft | 458 kts | 310° |
| 2026-04-16 01:04 | -10.38414 | -52.84642 | 35928 ft | 458 kts | 310° |
| 2026-04-16 01:05 | -10.34223 | -52.89508 | 35923 ft | 458 kts | 310° |
| 2026-04-16 01:05 | -10.30031 | -52.94372 | 35925 ft | 457 kts | 310° |
| 2026-04-16 01:06 | -10.25836 | -52.99238 | 35919 ft | 457 kts | 310° |
| 2026-04-16 01:06 | -10.21650 | -53.04093 | 35923 ft | 457 kts | 310° |
| 2026-04-16 01:07 | -10.17490 | -53.08913 | 35924 ft | 457 kts | 310° |
| 2026-04-16 01:07 | -10.13297 | -53.13772 | 35921 ft | 457 kts | 310° |
| 2026-04-16 01:08 | -10.09109 | -53.18621 | 35922 ft | 457 kts | 310° |
| 2026-04-16 01:08 | -10.04916 | -53.23474 | 35922 ft | 457 kts | 310° |
| 2026-04-16 01:09 | -10.01407 | -53.27534 | 35923 ft | 457 kts | 310° |
| 2026-04-16 01:09 | -9.97216 | -53.32382 | 35920 ft | 457 kts | 310° |
| 2026-04-16 01:10 | -9.93051 | -53.37197 | 35924 ft | 457 kts | 311° |
| 2026-04-16 01:10 | -9.88860 | -53.42040 | 35924 ft | 457 kts | 311° |
| 2026-04-16 01:11 | -9.84661 | -53.46890 | 35925 ft | 457 kts | 311° |
| 2026-04-16 01:11 | -9.80460 | -53.51741 | 35923 ft | 457 kts | 311° |
| 2026-04-16 01:12 | -9.76264 | -53.56583 | 35923 ft | 457 kts | 311° |
| 2026-04-16 01:12 | -9.72063 | -53.61430 | 35927 ft | 457 kts | 311° |
| 2026-04-16 01:13 | -9.67858 | -53.66279 | 35924 ft | 458 kts | 311° |
| 2026-04-16 01:13 | -9.63651 | -53.71128 | 35923 ft | 458 kts | 311° |
| 2026-04-16 01:14 | -9.59449 | -53.75970 | 35922 ft | 458 kts | 311° |
| 2026-04-16 01:14 | -9.55241 | -53.80818 | 35919 ft | 458 kts | 311° |
| 2026-04-16 01:15 | -9.51028 | -53.85667 | 35927 ft | 458 kts | 311° |
| 2026-04-16 01:15 | -9.46813 | -53.90518 | 35923 ft | 459 kts | 311° |
| 2026-04-16 01:16 | -9.42624 | -53.95337 | 35927 ft | 459 kts | 311° |
| 2026-04-16 01:16 | -9.38408 | -54.00186 | 35917 ft | 459 kts | 311° |
| 2026-04-16 01:17 | -9.34190 | -54.05034 | 35917 ft | 459 kts | 311° |
| 2026-04-16 01:17 | -9.29969 | -54.09884 | 35923 ft | 459 kts | 311° |
| 2026-04-16 01:18 | -9.25747 | -54.14733 | 35927 ft | 458 kts | 311° |
| 2026-04-16 01:18 | -9.21532 | -54.19572 | 35924 ft | 458 kts | 311° |
| 2026-04-16 01:19 | -9.17313 | -54.24415 | 35927 ft | 458 kts | 311° |
| 2026-04-16 01:19 | -9.13098 | -54.29249 | 35924 ft | 458 kts | 311° |
| 2026-04-16 01:20 | -9.08881 | -54.34085 | 35924 ft | 458 kts | 311° |
| 2026-04-16 01:20 | -9.04667 | -54.38916 | 35923 ft | 458 kts | 311° |
| 2026-04-16 01:21 | -9.00448 | -54.43751 | 35925 ft | 458 kts | 311° |
| 2026-04-16 01:21 | -8.96262 | -54.48545 | 35929 ft | 458 kts | 311° |
| 2026-04-16 01:22 | -8.92044 | -54.53374 | 35927 ft | 458 kts | 311° |
| 2026-04-16 01:22 | -8.87827 | -54.58202 | 35930 ft | 458 kts | 311° |
| 2026-04-16 01:23 | -8.83612 | -54.63024 | 35932 ft | 458 kts | 311° |
| 2026-04-16 01:23 | -8.79395 | -54.67847 | 35924 ft | 458 kts | 311° |
| 2026-04-16 01:24 | -8.75181 | -54.72665 | 35926 ft | 458 kts | 311° |
| 2026-04-16 01:24 | -8.70968 | -54.77480 | 35924 ft | 458 kts | 311° |
| 2026-04-16 01:25 | -8.66741 | -54.82304 | 35928 ft | 458 kts | 311° |
| 2026-04-16 01:25 | -8.62516 | -54.87125 | 35922 ft | 458 kts | 311° |
| 2026-04-16 01:26 | -8.58289 | -54.91950 | 35927 ft | 459 kts | 311° |
| 2026-04-16 01:26 | -8.54058 | -54.96778 | 35919 ft | 459 kts | 311° |
| 2026-04-16 01:27 | -8.49840 | -55.01590 | 35923 ft | 459 kts | 311° |
| 2026-04-16 01:27 | -8.45583 | -55.06445 | 35918 ft | 460 kts | 311° |
| 2026-04-16 01:28 | -8.41344 | -55.11277 | 35914 ft | 460 kts | 311° |
| 2026-04-16 01:28 | -8.37129 | -55.16080 | 35917 ft | 460 kts | 311° |
| 2026-04-16 01:29 | -8.32854 | -55.20951 | 35914 ft | 460 kts | 311° |
| 2026-04-16 01:29 | -8.28634 | -55.25755 | 35919 ft | 460 kts | 311° |
| 2026-04-16 01:30 | -8.24387 | -55.30590 | 35913 ft | 460 kts | 311° |
| 2026-04-16 01:30 | -8.20140 | -55.35424 | 35920 ft | 460 kts | 311° |
| 2026-04-16 01:31 | -8.15894 | -55.40253 | 35911 ft | 459 kts | 311° |
| 2026-04-16 01:31 | -8.11661 | -55.45066 | 35911 ft | 459 kts | 311° |
| 2026-04-16 01:32 | -8.07424 | -55.49883 | 35916 ft | 458 kts | 311° |
| 2026-04-16 01:32 | -8.03197 | -55.54686 | 35907 ft | 457 kts | 311° |
| 2026-04-16 01:33 | -7.98974 | -55.59484 | 35907 ft | 457 kts | 311° |
| 2026-04-16 01:33 | -7.94751 | -55.64280 | 35907 ft | 456 kts | 311° |
| 2026-04-16 01:34 | -7.90535 | -55.69066 | 35913 ft | 456 kts | 311° |
| 2026-04-16 01:34 | -7.86346 | -55.73820 | 35914 ft | 456 kts | 311° |
| 2026-04-16 01:35 | -7.82136 | -55.78595 | 35918 ft | 456 kts | 311° |
| 2026-04-16 01:35 | -7.77924 | -55.83372 | 35912 ft | 455 kts | 311° |
| 2026-04-16 01:36 | -7.73715 | -55.88145 | 35908 ft | 455 kts | 311° |
| 2026-04-16 01:36 | -7.69506 | -55.92915 | 35915 ft | 455 kts | 311° |
| 2026-04-16 01:37 | -7.65297 | -55.97684 | 35920 ft | 455 kts | 311° |
| 2026-04-16 01:37 | -7.61088 | -56.02451 | 35913 ft | 455 kts | 311° |
| 2026-04-16 01:38 | -7.56874 | -56.07222 | 35908 ft | 456 kts | 311° |
| 2026-04-16 01:38 | -7.52659 | -56.11993 | 35915 ft | 456 kts | 312° |
| 2026-04-16 01:39 | -7.48444 | -56.16762 | 35919 ft | 456 kts | 312° |
| 2026-04-16 01:39 | -7.44230 | -56.21529 | 35912 ft | 456 kts | 312° |
| 2026-04-16 01:40 | -7.39998 | -56.26315 | 35909 ft | 456 kts | 312° |
| 2026-04-16 01:40 | -7.35774 | -56.31090 | 35922 ft | 457 kts | 312° |
| 2026-04-16 01:41 | -7.31572 | -56.35838 | 35913 ft | 457 kts | 312° |
| 2026-04-16 01:41 | -7.27340 | -56.40620 | 35915 ft | 457 kts | 312° |
| 2026-04-16 01:42 | -7.23108 | -56.45400 | 35911 ft | 457 kts | 312° |
| 2026-04-16 01:42 | -7.18880 | -56.50174 | 35911 ft | 457 kts | 312° |
| 2026-04-16 01:43 | -7.14642 | -56.54957 | 35917 ft | 457 kts | 312° |
| 2026-04-16 01:43 | -7.10406 | -56.59737 | 35915 ft | 457 kts | 312° |
| 2026-04-16 01:44 | -7.06169 | -56.64517 | 35919 ft | 457 kts | 312° |
| 2026-04-16 01:44 | -7.01928 | -56.69300 | 35910 ft | 458 kts | 312° |
| 2026-04-16 01:45 | -6.97689 | -56.74078 | 35919 ft | 458 kts | 312° |
| 2026-04-16 01:45 | -6.93452 | -56.78854 | 35914 ft | 458 kts | 312° |
| 2026-04-16 01:46 | -6.89207 | -56.83637 | 35910 ft | 458 kts | 312° |
| 2026-04-16 01:46 | -6.84964 | -56.88416 | 35913 ft | 458 kts | 312° |
| 2026-04-16 01:47 | -6.80723 | -56.93192 | 35905 ft | 458 kts | 311° |
| 2026-04-16 01:47 | -6.76481 | -56.97967 | 35907 ft | 458 kts | 311° |
| 2026-04-16 01:48 | -6.72242 | -57.02738 | 35912 ft | 458 kts | 311° |
| 2026-04-16 01:48 | -6.68025 | -57.07482 | 35909 ft | 458 kts | 311° |
| 2026-04-16 01:49 | -6.63780 | -57.12257 | 35911 ft | 458 kts | 311° |
| 2026-04-16 01:49 | -6.59535 | -57.17031 | 35909 ft | 458 kts | 311° |
| 2026-04-16 01:50 | -6.55290 | -57.21803 | 35912 ft | 458 kts | 311° |
| 2026-04-16 01:50 | -6.51042 | -57.26578 | 35913 ft | 458 kts | 312° |
| 2026-04-16 01:51 | -6.46798 | -57.31346 | 35901 ft | 458 kts | 312° |
| 2026-04-16 01:51 | -6.42548 | -57.36120 | 35907 ft | 458 kts | 312° |
| 2026-04-16 01:52 | -6.38299 | -57.40890 | 35908 ft | 458 kts | 312° |
| 2026-04-16 01:52 | -6.34047 | -57.45665 | 35908 ft | 458 kts | 312° |
| 2026-04-16 01:53 | -6.29791 | -57.50441 | 35910 ft | 458 kts | 312° |
| 2026-04-16 01:53 | -6.25536 | -57.55216 | 35904 ft | 458 kts | 312° |
| 2026-04-16 01:54 | -6.21309 | -57.59956 | 35900 ft | 458 kts | 312° |
| 2026-04-16 01:54 | -6.17051 | -57.64732 | 35908 ft | 458 kts | 312° |
| 2026-04-16 01:55 | -6.12797 | -57.69502 | 35909 ft | 458 kts | 312° |
| 2026-04-16 01:55 | -6.08538 | -57.74275 | 35905 ft | 459 kts | 312° |
| 2026-04-16 01:56 | -6.04279 | -57.79048 | 35906 ft | 459 kts | 312° |
| 2026-04-16 01:56 | -6.00017 | -57.83823 | 35910 ft | 459 kts | 312° |
| 2026-04-16 01:57 | -5.95752 | -57.88600 | 35899 ft | 459 kts | 312° |
| 2026-04-16 01:57 | -5.92204 | -57.92573 | 35910 ft | 460 kts | 312° |
| 2026-04-16 01:58 | -5.87930 | -57.97357 | 35911 ft | 460 kts | 312° |
| 2026-04-16 01:58 | -5.83647 | -58.02150 | 35910 ft | 460 kts | 312° |
| 2026-04-16 01:59 | -5.79373 | -58.06933 | 35911 ft | 460 kts | 312° |
| 2026-04-16 01:59 | -5.75089 | -58.11725 | 35899 ft | 461 kts | 312° |
| 2026-04-16 02:00 | -5.70801 | -58.16521 | 35905 ft | 461 kts | 312° |
| 2026-04-16 02:00 | -5.66540 | -58.21286 | 35900 ft | 462 kts | 312° |
| 2026-04-16 02:01 | -5.62251 | -58.26080 | 35905 ft | 462 kts | 312° |
| 2026-04-16 02:01 | -5.57958 | -58.30877 | 35902 ft | 462 kts | 312° |
| 2026-04-16 02:02 | -5.53669 | -58.35670 | 35894 ft | 462 kts | 312° |
| 2026-04-16 02:02 | -5.49376 | -58.40465 | 35898 ft | 461 kts | 312° |
| 2026-04-16 02:03 | -5.45087 | -58.45256 | 35897 ft | 461 kts | 312° |
| 2026-04-16 02:03 | -5.40798 | -58.50044 | 35885 ft | 461 kts | 312° |
| 2026-04-16 02:04 | -5.34368 | -58.57222 | 35898 ft | 461 kts | 312° |
| 2026-04-16 02:04 | -5.30090 | -58.61995 | 35894 ft | 460 kts | 312° |
| 2026-04-16 02:05 | -5.25809 | -58.66771 | 35898 ft | 460 kts | 312° |
| 2026-04-16 02:05 | -5.21539 | -58.71535 | 35888 ft | 459 kts | 312° |
| 2026-04-16 02:06 | -5.17291 | -58.76272 | 35890 ft | 459 kts | 312° |
| 2026-04-16 02:06 | -5.13020 | -58.81034 | 35890 ft | 459 kts | 312° |
| 2026-04-16 02:07 | -5.08752 | -58.85791 | 35894 ft | 458 kts | 312° |
| 2026-04-16 02:07 | -5.04492 | -58.90539 | 35897 ft | 458 kts | 312° |
| 2026-04-16 02:08 | -5.00230 | -58.95288 | 35886 ft | 458 kts | 312° |
| 2026-04-16 02:08 | -4.95972 | -59.00031 | 35887 ft | 458 kts | 312° |
| 2026-04-16 02:09 | -4.91710 | -59.04778 | 35893 ft | 458 kts | 312° |
| 2026-04-16 02:09 | -4.87453 | -59.09518 | 35882 ft | 458 kts | 312° |
| 2026-04-16 02:10 | -4.83190 | -59.14264 | 35882 ft | 458 kts | 312° |
| 2026-04-16 02:10 | -4.78891 | -59.19049 | 35899 ft | 466 kts | 312° |
| 2026-04-16 02:11 | -4.74532 | -59.23900 | 35830 ft | 470 kts | 312° |
| 2026-04-16 02:11 | -4.72354 | -59.26323 | 35233 ft | 478 kts | 312° |
| 2026-04-16 02:11 | -4.70131 | -59.28797 | 34645 ft | 476 kts | 312° |
| 2026-04-16 02:12 | -4.67913 | -59.31264 | 33980 ft | 478 kts | 312° |
| 2026-04-16 02:12 | -4.65685 | -59.33743 | 33198 ft | 480 kts | 312° |
| 2026-04-16 02:12 | -4.63449 | -59.36230 | 32464 ft | 480 kts | 312° |
| 2026-04-16 02:12 | -4.61213 | -59.38717 | 31914 ft | 477 kts | 312° |
| 2026-04-16 02:13 | -4.59003 | -59.41174 | 31400 ft | 474 kts | 312° |
| 2026-04-16 02:13 | -4.56802 | -59.43621 | 30887 ft | 470 kts | 312° |
| 2026-04-16 02:13 | -4.54617 | -59.46050 | 30360 ft | 468 kts | 312° |
| 2026-04-16 02:13 | -4.52447 | -59.48463 | 29832 ft | 465 kts | 312° |
| 2026-04-16 02:14 | -4.50291 | -59.50859 | 29261 ft | 461 kts | 312° |
| 2026-04-16 02:14 | -4.48148 | -59.53241 | 28718 ft | 457 kts | 312° |
| 2026-04-16 02:14 | -4.46029 | -59.55596 | 28193 ft | 453 kts | 312° |
| 2026-04-16 02:14 | -4.43927 | -59.57932 | 27681 ft | 449 kts | 312° |
| 2026-04-16 02:15 | -4.41848 | -59.60243 | 27178 ft | 445 kts | 312° |
| 2026-04-16 02:15 | -4.39779 | -59.62542 | 26679 ft | 442 kts | 312° |
| 2026-04-16 02:15 | -4.37756 | -59.64789 | 26195 ft | 438 kts | 312° |
| 2026-04-16 02:15 | -4.35694 | -59.67080 | 25675 ft | 436 kts | 312° |
| 2026-04-16 02:16 | -4.33697 | -59.69298 | 25185 ft | 433 kts | 312° |
| 2026-04-16 02:16 | -4.31684 | -59.71534 | 24681 ft | 431 kts | 313° |
| 2026-04-16 02:16 | -4.29681 | -59.73758 | 24186 ft | 429 kts | 313° |
| 2026-04-16 02:16 | -4.27689 | -59.75971 | 23691 ft | 427 kts | 313° |
| 2026-04-16 02:17 | -4.25702 | -59.78177 | 23140 ft | 425 kts | 313° |
| 2026-04-16 02:17 | -4.23728 | -59.80370 | 22614 ft | 422 kts | 313° |
| 2026-04-16 02:17 | -4.21771 | -59.82542 | 22113 ft | 418 kts | 313° |
| 2026-04-16 02:17 | -4.19831 | -59.84697 | 21624 ft | 415 kts | 313° |
| 2026-04-16 02:18 | -4.17906 | -59.86834 | 21146 ft | 411 kts | 313° |
| 2026-04-16 02:18 | -4.15998 | -59.88952 | 20677 ft | 408 kts | 313° |
| 2026-04-16 02:18 | -4.14107 | -59.91051 | 20209 ft | 405 kts | 313° |
| 2026-04-16 02:18 | -4.12223 | -59.93141 | 19732 ft | 403 kts | 313° |
| 2026-04-16 02:19 | -4.10216 | -59.95075 | 19239 ft | 399 kts | 326° |
| 2026-04-16 02:19 | -4.07764 | -59.96309 | 18736 ft | 395 kts | 343° |
| 2026-04-16 02:19 | -4.05139 | -59.97112 | 18249 ft | 394 kts | 345° |
| 2026-04-16 02:19 | -4.02509 | -59.97868 | 17709 ft | 392 kts | 346° |
| 2026-04-16 02:20 | -3.99896 | -59.98614 | 17228 ft | 389 kts | 346° |
| 2026-04-16 02:20 | -3.97312 | -59.99358 | 16760 ft | 385 kts | 345° |
| 2026-04-16 02:20 | -3.94745 | -60.00109 | 16308 ft | 382 kts | 345° |
| 2026-04-16 02:20 | -3.92204 | -60.00859 | 15859 ft | 379 kts | 345° |
| 2026-04-16 02:21 | -3.89691 | -60.01607 | 15425 ft | 376 kts | 345° |
| 2026-04-16 02:21 | -3.87189 | -60.02354 | 14981 ft | 373 kts | 345° |
| 2026-04-16 02:21 | -3.84713 | -60.03094 | 14528 ft | 371 kts | 345° |
| 2026-04-16 02:21 | -3.82241 | -60.03833 | 14095 ft | 369 kts | 345° |
| 2026-04-16 02:22 | -3.79790 | -60.04566 | 13637 ft | 367 kts | 345° |
| 2026-04-16 02:22 | -3.77350 | -60.05297 | 13159 ft | 365 kts | 345° |
| 2026-04-16 02:22 | -3.74927 | -60.06022 | 12719 ft | 362 kts | 345° |
| 2026-04-16 02:22 | -3.72525 | -60.06740 | 12255 ft | 359 kts | 345° |
| 2026-04-16 02:23 | -3.70140 | -60.07453 | 11839 ft | 356 kts | 345° |
| 2026-04-16 02:23 | -3.67772 | -60.08162 | 11419 ft | 353 kts | 345° |
| 2026-04-16 02:23 | -3.65431 | -60.08862 | 10995 ft | 350 kts | 345° |
| 2026-04-16 02:23 | -3.63101 | -60.09558 | 10584 ft | 348 kts | 345° |
| 2026-04-16 02:24 | -3.60851 | -60.10232 | 10424 ft | 337 kts | 345° |
| 2026-04-16 02:24 | -3.58629 | -60.10897 | 10257 ft | 328 kts | 345° |
| 2026-04-16 02:24 | -3.56476 | -60.11541 | 10120 ft | 318 kts | 345° |
| 2026-04-16 02:24 | -3.54386 | -60.12165 | 9987 ft | 309 kts | 346° |
| 2026-04-16 02:25 | -3.52343 | -60.12776 | 9843 ft | 301 kts | 346° |
| 2026-04-16 02:25 | -3.50378 | -60.13365 | 9734 ft | 292 kts | 346° |
| 2026-04-16 02:25 | -3.48399 | -60.13955 | 9251 ft | 297 kts | 346° |
| 2026-04-16 02:25 | -3.46416 | -60.14547 | 8895 ft | 297 kts | 346° |
| 2026-04-16 02:26 | -3.44442 | -60.15137 | 8588 ft | 295 kts | 346° |
| 2026-04-16 02:26 | -3.42481 | -60.15724 | 8281 ft | 293 kts | 346° |
| 2026-04-16 02:26 | -3.40539 | -60.16304 | 7977 ft | 292 kts | 346° |
| 2026-04-16 02:26 | -3.38600 | -60.16884 | 7677 ft | 290 kts | 346° |
| 2026-04-16 02:27 | -3.36666 | -60.17463 | 7375 ft | 289 kts | 346° |
| 2026-04-16 02:27 | -3.34742 | -60.18038 | 7077 ft | 288 kts | 346° |
| 2026-04-16 02:27 | -3.32827 | -60.18611 | 6779 ft | 287 kts | 346° |
| 2026-04-16 02:27 | -3.30920 | -60.19181 | 6482 ft | 285 kts | 346° |
| 2026-04-16 02:28 | -3.29050 | -60.19740 | 6185 ft | 284 kts | 346° |
| 2026-04-16 02:28 | -3.27156 | -60.20306 | 5868 ft | 283 kts | 346° |
| 2026-04-16 02:28 | -3.25272 | -60.20869 | 5574 ft | 282 kts | 346° |
| 2026-04-16 02:28 | -3.23385 | -60.21348 | 5261 ft | 279 kts | 352° |
| 2026-04-16 02:29 | -3.21475 | -60.21658 | 4977 ft | 277 kts | 353° |
| 2026-04-16 02:29 | -3.19575 | -60.21945 | 4686 ft | 275 kts | 353° |
| 2026-04-16 02:29 | -3.17688 | -60.22243 | 4387 ft | 274 kts | 353° |
| 2026-04-16 02:29 | -3.15811 | -60.22549 | 4097 ft | 273 kts | 353° |
| 2026-04-16 02:30 | -3.13954 | -60.22852 | 3907 ft | 267 kts | 354° |
| 2026-04-16 02:30 | -3.12121 | -60.22952 | 3703 ft | 261 kts | 2° |
| 2026-04-16 02:30 | -3.10321 | -60.22921 | 3512 ft | 257 kts | 3° |
| 2026-04-16 02:30 | -3.08546 | -60.22890 | 3322 ft | 253 kts | 3° |
| 2026-04-16 02:31 | -3.06802 | -60.22872 | 3144 ft | 249 kts | 2° |
| 2026-04-16 02:31 | -3.05126 | -60.22632 | 2929 ft | 241 kts | 27° |
| 2026-04-16 02:31 | -3.03961 | -60.21512 | 2718 ft | 233 kts | 67° |
| 2026-04-16 02:31 | -3.03736 | -60.19945 | 2546 ft | 227 kts | 91° |
| 2026-04-16 02:32 | -3.03779 | -60.18373 | 2327 ft | 226 kts | 91° |
| 2026-04-16 02:32 | -3.03803 | -60.16811 | 2105 ft | 224 kts | 90° |
| 2026-04-16 02:32 | -3.03814 | -60.15259 | 1897 ft | 222 kts | 90° |
| 2026-04-16 02:32 | -3.03826 | -60.13741 | 1804 ft | 213 kts | 90° |
| 2026-04-16 02:33 | -3.03836 | -60.12288 | 1775 ft | 207 kts | 90° |
| 2026-04-16 02:33 | -3.03843 | -60.10855 | 1795 ft | 205 kts | 90° |
| 2026-04-16 02:33 | -3.03848 | -60.09441 | 1781 ft | 207 kts | 89° |
| 2026-04-16 02:33 | -3.03852 | -60.07978 | 1797 ft | 209 kts | 90° |
| 2026-04-16 02:34 | -3.03856 | -60.06546 | 1757 ft | 207 kts | 90° |
| 2026-04-16 02:34 | -3.03860 | -60.05118 | 1592 ft | 204 kts | 89° |
| 2026-04-16 02:34 | -3.03866 | -60.03706 | 1374 ft | 206 kts | 89° |
| 2026-04-16 02:34 | -3.03816 | -60.02262 | 1373 ft | 206 kts | 88° |
| 2026-04-16 02:35 | -3.03747 | -60.00866 | 1628 ft | 194 kts | 87° |
| 2026-04-16 02:35 | -3.03678 | -59.99554 | 1701 ft | 187 kts | 86° |
| 2026-04-16 02:35 | -3.03614 | -59.98266 | 1700 ft | 184 kts | 90° |
| 2026-04-16 02:35 | -3.03656 | -59.96992 | 1699 ft | 183 kts | 92° |
| 2026-04-16 02:36 | -3.03720 | -59.95705 | 1781 ft | 192 kts | 92° |
| 2026-04-16 02:36 | -3.03793 | -59.94270 | 2059 ft | 223 kts | 91° |
| 2026-04-16 02:36 | -3.03447 | -59.92674 | 2424 ft | 251 kts | 57° |
| 2026-04-16 02:36 | -3.02098 | -59.91569 | 3306 ft | 259 kts | 23° |
| 2026-04-16 02:37 | -3.00291 | -59.91337 | 3757 ft | 268 kts | 353° |
| 2026-04-16 02:37 | -2.98554 | -59.92039 | 3965 ft | 274 kts | 325° |
| 2026-04-16 02:37 | -2.97382 | -59.93509 | 3996 ft | 274 kts | 293° |
| 2026-04-16 02:37 | -2.96932 | -59.95357 | 3997 ft | 273 kts | 278° |
| 2026-04-16 02:38 | -2.96726 | -59.97241 | 3982 ft | 272 kts | 276° |
| 2026-04-16 02:38 | -2.96558 | -59.99118 | 3983 ft | 270 kts | 276° |
| 2026-04-16 02:38 | -2.96383 | -60.00969 | 3978 ft | 263 kts | 276° |
| 2026-04-16 02:38 | -2.96196 | -60.02743 | 3976 ft | 252 kts | 277° |
| 2026-04-16 02:39 | -2.95988 | -60.04491 | 4009 ft | 261 kts | 277° |
| 2026-04-16 02:39 | -2.95754 | -60.06391 | 4015 ft | 283 kts | 277° |
| 2026-04-16 02:39 | -2.95514 | -60.08354 | 4005 ft | 284 kts | 277° |
| 2026-04-16 02:39 | -2.95280 | -60.10280 | 3989 ft | 281 kts | 277° |
| 2026-04-16 02:40 | -2.95047 | -60.12212 | 3985 ft | 278 kts | 277° |
| 2026-04-16 02:40 | -2.94817 | -60.14122 | 3982 ft | 276 kts | 277° |
| 2026-04-16 02:40 | -2.94590 | -60.16007 | 3980 ft | 270 kts | 277° |
| 2026-04-16 02:40 | -2.94368 | -60.17856 | 3983 ft | 266 kts | 277° |
| 2026-04-16 02:41 | -2.94275 | -60.19688 | 3971 ft | 264 kts | 261° |
| 2026-04-16 02:41 | -2.94975 | -60.21358 | 4001 ft | 262 kts | 231° |
| 2026-04-16 02:41 | -2.96378 | -60.22479 | 3999 ft | 259 kts | 202° |
| 2026-04-16 02:41 | -2.98091 | -60.22875 | 3998 ft | 249 kts | 180° |
| 2026-04-16 02:42 | -2.99798 | -60.22891 | 3611 ft | 250 kts | 178° |
| 2026-04-16 02:42 | -3.01515 | -60.22872 | 3418 ft | 237 kts | 173° |
| 2026-04-16 02:42 | -3.02968 | -60.22350 | 3261 ft | 214 kts | 136° |
| 2026-04-16 02:42 | -3.03666 | -60.21152 | 3049 ft | 196 kts | 97° |
| 2026-04-16 02:43 | -3.03777 | -60.19832 | 2832 ft | 188 kts | 93° |
| 2026-04-16 02:43 | -3.03826 | -60.18538 | 2590 ft | 184 kts | 90° |
| 2026-04-16 02:43 | -3.03835 | -60.17268 | 2351 ft | 181 kts | 90° |
| 2026-04-16 02:43 | -3.03836 | -60.16047 | 2128 ft | 170 kts | 89° |
| 2026-04-16 02:44 | -3.03838 | -60.14897 | 1918 ft | 161 kts | 89° |
| 2026-04-16 02:44 | -3.03841 | -60.13821 | 1747 ft | 149 kts | 89° |
| 2026-04-16 02:44 | -3.03842 | -60.12785 | 1532 ft | 148 kts | 89° |
| 2026-04-16 02:44 | -3.03844 | -60.11763 | 1342 ft | 146 kts | 89° |
| 2026-04-16 02:45 | -3.03846 | -60.10753 | 1164 ft | 147 kts | 90° |
| 2026-04-16 02:45 | -3.03842 | -60.09722 | 1014 ft | 150 kts | 89° |
| 2026-04-16 02:45 | -3.03846 | -60.08664 | 786 ft | 150 kts | 90° |
| 2026-04-16 02:45 | -3.03846 | -60.07626 | 588 ft | 154 kts | 90° |
| 2026-04-16 02:46 | -3.03855 | -60.06537 | 377 ft | 158 kts | 89° |
| 2026-04-16 02:46 | -3.03851 | -60.05467 | 271 ft | 145 kts | 89° |
| 2026-04-16 02:46 | -3.03857 | -60.04572 | 269 ft | 112 kts | 91° |
| 2026-04-16 02:46 | -3.03857 | -60.03934 | 268 ft | 50 kts | 88° |
| 2026-04-16 02:47 | -3.03834 | -60.03790 | 267 ft | 14 kts | 43° |
| 2026-04-16 02:47 | -3.03776 | -60.03766 | 268 ft | 9 kts | 355° |
| 2026-04-16 02:47 | -3.03719 | -60.03790 | 268 ft | 9 kts | 315° |
| 2026-04-16 02:47 | -3.03694 | -60.03823 | 268 ft | 9 kts | 306° |
| 2026-04-16 02:48 | -3.03674 | -60.03880 | 268 ft | 9 kts | 285° |
| 2026-04-16 02:48 | -3.03657 | -60.03938 | 267 ft | 8 kts | 285° |
| 2026-04-16 02:48 | -3.03642 | -60.03995 | 267 ft | 9 kts | 284° |
| 2026-04-16 02:48 | -3.03623 | -60.04068 | 267 ft | 13 kts | 284° |
| 2026-04-16 02:49 | -3.03595 | -60.04171 | 267 ft | 16 kts | 285° |
| 2026-04-16 02:49 | -3.03547 | -60.04271 | 267 ft | 16 kts | 306° |
| 2026-04-16 02:49 | -3.03469 | -60.04343 | 267 ft | 15 kts | 329° |
| 2026-04-16 02:49 | -3.03374 | -60.04380 | 267 ft | 11 kts | 345° |
| 2026-04-16 02:50 | -3.03314 | -60.04392 | 267 ft | 7 kts | 348° |
| 2026-04-16 02:50 | -3.03270 | -60.04403 | 267 ft | 4 kts | 345° |
| 2026-04-16 02:50 | -3.03256 | -60.04407 | 267 ft | 0 kts | 345° |